ITY6031 ZHCC-ZBAD
Flight info
| Callsign | ITY6031 |
|---|---|
| Flight time | 1h 0m |
| Altitude | 37000 |
| Route | OKT9Z OKTOX W56 ORODO W62 TEKIL G212 BELAX BELAX5L |
| Aircraft | A320/M-SDE3FGHIRWY/LB1 |
Departure
| Time | 2026-04-21 18:00 |
|---|---|
| Airport | Zhengzhou Xinzheng International Airport (ZHCC) |
Arrival
| Time | 2026-04-21 19:01 |
|---|---|
| Airport | Beijing Daxing International Airport (ZBAD) |
| Time | Latitude | Longitude | Altitude | Speed | Heading |
|---|---|---|---|---|---|
| 2026-04-21 17:18 | 34.52429 | 113.84443 | 497 ft | 0 kts | 21° |
| 2026-04-21 17:26 | 34.52422 | 113.84440 | 491 ft | 2 kts | 21° |
| 2026-04-21 17:26 | 34.52406 | 113.84432 | 495 ft | 2 kts | 21° |
| 2026-04-21 17:26 | 34.52390 | 113.84425 | 489 ft | 3 kts | 26° |
| 2026-04-21 17:26 | 34.52376 | 113.84412 | 495 ft | 3 kts | 62° |
| 2026-04-21 17:27 | 34.52371 | 113.84391 | 486 ft | 2 kts | 96° |
| 2026-04-21 17:27 | 34.52372 | 113.84384 | 497 ft | 0 kts | 84° |
| 2026-04-21 17:33 | 34.52366 | 113.84394 | 486 ft | 1 kts | 126° |
| 2026-04-21 17:33 | 34.52361 | 113.84403 | 495 ft | 5 kts | 126° |
| 2026-04-21 17:33 | 34.52290 | 113.84402 | 490 ft | 11 kts | 233° |
| 2026-04-21 17:34 | 34.52291 | 113.84325 | 497 ft | 11 kts | 276° |
| 2026-04-21 17:34 | 34.52327 | 113.84140 | 494 ft | 13 kts | 254° |
| 2026-04-21 17:34 | 34.52248 | 113.84027 | 491 ft | 22 kts | 236° |
| 2026-04-21 17:34 | 34.52162 | 113.84024 | 492 ft | 10 kts | 116° |
| 2026-04-21 17:35 | 34.52120 | 113.84081 | 497 ft | 8 kts | 133° |
| 2026-04-21 17:35 | 34.52095 | 113.84161 | 497 ft | 24 kts | 108° |
| 2026-04-21 17:35 | 34.51982 | 113.84528 | 495 ft | 51 kts | 111° |
| 2026-04-21 17:35 | 34.51889 | 113.84805 | 488 ft | 26 kts | 114° |
| 2026-04-21 17:36 | 34.51860 | 113.84884 | 488 ft | 6 kts | 111° |
| 2026-04-21 17:36 | 34.51847 | 113.84927 | 489 ft | 0 kts | 111° |
| 2026-04-21 17:55 | 34.51844 | 113.84934 | 494 ft | 5 kts | 112° |
| 2026-04-21 17:55 | 34.51829 | 113.84979 | 492 ft | 5 kts | 112° |
| 2026-04-21 17:56 | 34.51816 | 113.85018 | 494 ft | 4 kts | 112° |
| 2026-04-21 17:56 | 34.51794 | 113.85079 | 496 ft | 11 kts | 114° |
| 2026-04-21 17:56 | 34.51767 | 113.85154 | 494 ft | 9 kts | 114° |
| 2026-04-21 17:56 | 34.51744 | 113.85217 | 494 ft | 7 kts | 114° |
| 2026-04-21 17:57 | 34.51724 | 113.85273 | 494 ft | 10 kts | 113° |
| 2026-04-21 17:57 | 34.51678 | 113.85405 | 491 ft | 19 kts | 112° |
| 2026-04-21 17:57 | 34.51625 | 113.85559 | 491 ft | 20 kts | 113° |
| 2026-04-21 17:57 | 34.51566 | 113.85722 | 493 ft | 22 kts | 114° |
| 2026-04-21 17:58 | 34.51516 | 113.85856 | 496 ft | 14 kts | 137° |
| 2026-04-21 17:58 | 34.51473 | 113.85872 | 493 ft | 0 kts | 179° |
| 2026-04-21 17:59 | 34.51398 | 113.85847 | 500 ft | 19 kts | 223° |
| 2026-04-21 17:59 | 34.51406 | 113.85656 | 499 ft | 46 kts | 288° |
| 2026-04-21 18:00 | 34.51635 | 113.84974 | 493 ft | 125 kts | 294° |
| 2026-04-21 18:00 | 34.52026 | 113.83791 | 686 ft | 165 kts | 292° |
| 2026-04-21 18:00 | 34.52482 | 113.82466 | 1406 ft | 174 kts | 294° |
| 2026-04-21 18:00 | 34.52964 | 113.81063 | 2111 ft | 190 kts | 294° |
| 2026-04-21 18:01 | 34.53392 | 113.79457 | 2526 ft | 211 kts | 283° |
| 2026-04-21 18:01 | 34.53590 | 113.77606 | 2954 ft | 230 kts | 279° |
| 2026-04-21 18:01 | 34.54174 | 113.75803 | 3663 ft | 234 kts | 310° |
| 2026-04-21 18:01 | 34.55474 | 113.74627 | 4418 ft | 239 kts | 339° |
| 2026-04-21 18:02 | 34.57177 | 113.74397 | 4901 ft | 259 kts | 9° |
| 2026-04-21 18:02 | 34.58779 | 113.75346 | 4888 ft | 260 kts | 45° |
| 2026-04-21 18:02 | 34.59609 | 113.77274 | 5205 ft | 272 kts | 80° |
| 2026-04-21 18:02 | 34.59501 | 113.79557 | 6238 ft | 273 kts | 98° |
| 2026-04-21 18:03 | 34.59246 | 113.81841 | 7144 ft | 274 kts | 86° |
| 2026-04-21 18:03 | 34.59663 | 113.84086 | 7939 ft | 275 kts | 63° |
| 2026-04-21 18:03 | 34.60822 | 113.85926 | 8743 ft | 278 kts | 38° |
| 2026-04-21 18:03 | 34.62508 | 113.87103 | 9558 ft | 282 kts | 24° |
| 2026-04-21 18:04 | 34.64310 | 113.88117 | 10301 ft | 290 kts | 24° |
| 2026-04-21 18:04 | 34.66222 | 113.89194 | 10574 ft | 314 kts | 24° |
| 2026-04-21 18:04 | 34.68264 | 113.90351 | 10990 ft | 330 kts | 24° |
| 2026-04-21 18:04 | 34.70367 | 113.91549 | 11677 ft | 337 kts | 24° |
| 2026-04-21 18:05 | 34.72503 | 113.92773 | 12427 ft | 341 kts | 24° |
| 2026-04-21 18:05 | 34.74654 | 113.94009 | 13176 ft | 346 kts | 23° |
| 2026-04-21 18:05 | 34.76845 | 113.95270 | 13915 ft | 350 kts | 23° |
| 2026-04-21 18:05 | 34.79031 | 113.96531 | 14550 ft | 354 kts | 22° |
| 2026-04-21 18:06 | 34.81272 | 113.97823 | 15184 ft | 358 kts | 22° |
| 2026-04-21 18:06 | 34.83571 | 113.99146 | 15832 ft | 362 kts | 21° |
| 2026-04-21 18:06 | 34.85859 | 114.00459 | 16454 ft | 366 kts | 21° |
| 2026-04-21 18:06 | 34.88141 | 114.01768 | 17062 ft | 369 kts | 21° |
| 2026-04-21 18:07 | 34.90479 | 114.03111 | 17662 ft | 373 kts | 20° |
| 2026-04-21 18:07 | 34.92840 | 114.04470 | 18266 ft | 377 kts | 20° |
| 2026-04-21 18:07 | 34.95226 | 114.05846 | 18786 ft | 381 kts | 20° |
| 2026-04-21 18:07 | 34.97643 | 114.07241 | 19294 ft | 385 kts | 20° |
| 2026-04-21 18:08 | 35.00077 | 114.08647 | 19807 ft | 389 kts | 20° |
| 2026-04-21 18:08 | 35.02539 | 114.10069 | 20323 ft | 394 kts | 20° |
| 2026-04-21 18:08 | 35.05035 | 114.11508 | 20838 ft | 398 kts | 20° |
| 2026-04-21 18:08 | 35.07551 | 114.12958 | 21353 ft | 402 kts | 19° |
| 2026-04-21 18:09 | 35.10096 | 114.14430 | 21877 ft | 406 kts | 19° |
| 2026-04-21 18:09 | 35.12670 | 114.15922 | 22400 ft | 410 kts | 19° |
| 2026-04-21 18:09 | 35.15261 | 114.17425 | 22922 ft | 415 kts | 19° |
| 2026-04-21 18:09 | 35.17846 | 114.18925 | 23432 ft | 419 kts | 19° |
| 2026-04-21 18:10 | 35.20492 | 114.20463 | 23887 ft | 423 kts | 19° |
| 2026-04-21 18:10 | 35.23161 | 114.22015 | 24287 ft | 427 kts | 19° |
| 2026-04-21 18:10 | 35.25858 | 114.23581 | 24658 ft | 431 kts | 19° |
| 2026-04-21 18:10 | 35.28581 | 114.25162 | 25018 ft | 435 kts | 19° |
| 2026-04-21 18:11 | 35.31363 | 114.26585 | 25362 ft | 432 kts | 12° |
| 2026-04-21 18:11 | 35.34237 | 114.27738 | 25713 ft | 435 kts | 11° |
| 2026-04-21 18:11 | 35.37127 | 114.28880 | 26051 ft | 438 kts | 11° |
| 2026-04-21 18:11 | 35.40045 | 114.30026 | 26375 ft | 442 kts | 11° |
| 2026-04-21 18:12 | 35.42985 | 114.31182 | 26711 ft | 445 kts | 11° |
| 2026-04-21 18:12 | 35.45944 | 114.32349 | 27034 ft | 448 kts | 11° |
| 2026-04-21 18:12 | 35.48922 | 114.33526 | 27360 ft | 452 kts | 11° |
| 2026-04-21 18:12 | 35.51928 | 114.34715 | 27673 ft | 455 kts | 11° |
| 2026-04-21 18:13 | 35.54957 | 114.35916 | 27992 ft | 458 kts | 11° |
| 2026-04-21 18:13 | 35.58004 | 114.37128 | 28302 ft | 461 kts | 11° |
| 2026-04-21 18:13 | 35.61026 | 114.38330 | 28604 ft | 464 kts | 11° |
| 2026-04-21 18:13 | 35.64108 | 114.39554 | 28903 ft | 467 kts | 11° |
| 2026-04-21 18:14 | 35.70338 | 114.42039 | 29490 ft | 472 kts | 11° |
| 2026-04-21 18:14 | 35.73478 | 114.43295 | 29775 ft | 475 kts | 11° |
| 2026-04-21 18:14 | 35.76630 | 114.44553 | 30049 ft | 477 kts | 11° |
| 2026-04-21 18:15 | 35.79795 | 114.45820 | 30290 ft | 480 kts | 11° |
| 2026-04-21 18:15 | 35.82976 | 114.47096 | 30531 ft | 482 kts | 11° |
| 2026-04-21 18:15 | 35.86169 | 114.48374 | 30768 ft | 483 kts | 10° |
| 2026-04-21 18:15 | 35.89373 | 114.49653 | 30995 ft | 485 kts | 10° |
| 2026-04-21 18:16 | 35.92587 | 114.50935 | 31220 ft | 486 kts | 10° |
| 2026-04-21 18:16 | 35.95820 | 114.52230 | 31463 ft | 487 kts | 11° |
| 2026-04-21 18:16 | 35.98994 | 114.53513 | 31782 ft | 487 kts | 11° |
| 2026-04-21 18:16 | 36.02217 | 114.54821 | 32091 ft | 486 kts | 10° |
| 2026-04-21 18:17 | 36.05434 | 114.56125 | 32397 ft | 486 kts | 10° |
| 2026-04-21 18:17 | 36.08653 | 114.57424 | 32694 ft | 485 kts | 10° |
| 2026-04-21 18:17 | 36.11864 | 114.58719 | 33007 ft | 485 kts | 10° |
| 2026-04-21 18:17 | 36.15071 | 114.60011 | 33298 ft | 485 kts | 10° |
| 2026-04-21 18:18 | 36.18278 | 114.61303 | 33598 ft | 484 kts | 10° |
| 2026-04-21 18:18 | 36.21486 | 114.62598 | 33897 ft | 484 kts | 10° |
| 2026-04-21 18:18 | 36.24649 | 114.63877 | 34169 ft | 484 kts | 10° |
| 2026-04-21 18:18 | 36.27856 | 114.65173 | 34442 ft | 483 kts | 10° |
| 2026-04-21 18:19 | 36.31055 | 114.66467 | 34720 ft | 482 kts | 9° |
| 2026-04-21 18:19 | 36.34241 | 114.67759 | 34990 ft | 481 kts | 9° |
| 2026-04-21 18:19 | 36.37420 | 114.69051 | 35269 ft | 480 kts | 9° |
| 2026-04-21 18:19 | 36.40584 | 114.70336 | 35529 ft | 478 kts | 9° |
| 2026-04-21 18:20 | 36.43755 | 114.71622 | 35779 ft | 477 kts | 9° |
| 2026-04-21 18:20 | 36.46915 | 114.72906 | 36021 ft | 476 kts | 9° |
| 2026-04-21 18:20 | 36.50023 | 114.74174 | 36248 ft | 476 kts | 9° |
| 2026-04-21 18:20 | 36.53162 | 114.75456 | 36463 ft | 475 kts | 9° |
| 2026-04-21 18:21 | 36.56312 | 114.76744 | 36674 ft | 475 kts | 9° |
| 2026-04-21 18:21 | 36.59445 | 114.78025 | 36889 ft | 474 kts | 9° |
| 2026-04-21 18:21 | 36.62578 | 114.79308 | 36986 ft | 473 kts | 9° |
| 2026-04-21 18:22 | 36.68814 | 114.81864 | 36997 ft | 471 kts | 9° |
| 2026-04-21 18:22 | 36.75042 | 114.84413 | 36993 ft | 471 kts | 9° |
| 2026-04-21 18:23 | 36.81268 | 114.86970 | 36989 ft | 471 kts | 9° |
| 2026-04-21 18:23 | 36.87502 | 114.89538 | 36988 ft | 471 kts | 9° |
| 2026-04-21 18:24 | 36.93724 | 114.92103 | 36999 ft | 471 kts | 9° |
| 2026-04-21 18:24 | 36.99958 | 114.94671 | 37004 ft | 471 kts | 9° |
| 2026-04-21 18:25 | 37.06190 | 114.97246 | 37006 ft | 471 kts | 9° |
| 2026-04-21 18:25 | 37.12387 | 114.99812 | 37006 ft | 471 kts | 9° |
| 2026-04-21 18:26 | 37.18616 | 115.02399 | 37006 ft | 471 kts | 9° |
| 2026-04-21 18:26 | 37.24827 | 115.04985 | 37009 ft | 470 kts | 9° |
| 2026-04-21 18:27 | 37.31019 | 115.07564 | 37008 ft | 470 kts | 9° |
| 2026-04-21 18:27 | 37.37229 | 115.10147 | 37009 ft | 469 kts | 9° |
| 2026-04-21 18:28 | 37.43389 | 115.12722 | 37010 ft | 469 kts | 9° |
| 2026-04-21 18:28 | 37.49573 | 115.15352 | 37014 ft | 471 kts | 13° |
| 2026-04-21 18:29 | 37.55569 | 115.18843 | 37012 ft | 475 kts | 16° |
| 2026-04-21 18:29 | 37.61549 | 115.22396 | 37009 ft | 474 kts | 16° |
| 2026-04-21 18:30 | 37.67505 | 115.25937 | 37003 ft | 473 kts | 16° |
| 2026-04-21 18:30 | 37.73451 | 115.29470 | 37002 ft | 472 kts | 16° |
| 2026-04-21 18:31 | 37.79478 | 115.32560 | 37000 ft | 457 kts | 4° |
| 2026-04-21 18:31 | 37.82571 | 115.33253 | 36996 ft | 445 kts | 355° |
| 2026-04-21 18:31 | 37.85618 | 115.33329 | 36997 ft | 433 kts | 346° |
| 2026-04-21 18:32 | 37.91553 | 115.32506 | 36990 ft | 429 kts | 343° |
| 2026-04-21 18:32 | 37.97487 | 115.31667 | 37000 ft | 429 kts | 344° |
| 2026-04-21 18:33 | 38.03223 | 115.30872 | 37000 ft | 429 kts | 344° |
| 2026-04-21 18:33 | 38.09163 | 115.30034 | 36999 ft | 429 kts | 343° |
| 2026-04-21 18:34 | 38.15098 | 115.29163 | 37001 ft | 429 kts | 343° |
| 2026-04-21 18:34 | 38.20815 | 115.28311 | 36995 ft | 428 kts | 343° |
| 2026-04-21 18:35 | 38.25733 | 115.27576 | 36992 ft | 429 kts | 343° |
| 2026-04-21 18:35 | 38.31657 | 115.26703 | 36994 ft | 428 kts | 343° |
| 2026-04-21 18:36 | 38.37578 | 115.25829 | 36991 ft | 428 kts | 343° |
| 2026-04-21 18:36 | 38.43505 | 115.24947 | 36991 ft | 428 kts | 343° |
| 2026-04-21 18:37 | 38.49423 | 115.24068 | 36676 ft | 428 kts | 343° |
| 2026-04-21 18:37 | 38.52351 | 115.23679 | 36425 ft | 432 kts | 348° |
| 2026-04-21 18:37 | 38.55401 | 115.23945 | 36178 ft | 450 kts | 2° |
| 2026-04-21 18:37 | 38.58447 | 115.25169 | 35922 ft | 468 kts | 16° |
| 2026-04-21 18:38 | 38.61274 | 115.27384 | 35675 ft | 486 kts | 32° |
| 2026-04-21 18:38 | 38.63653 | 115.30549 | 35431 ft | 502 kts | 49° |
| 2026-04-21 18:38 | 38.65436 | 115.34438 | 34719 ft | 514 kts | 59° |
| 2026-04-21 18:38 | 38.66994 | 115.38565 | 34037 ft | 515 kts | 60° |
| 2026-04-21 18:39 | 38.68504 | 115.42729 | 33273 ft | 516 kts | 61° |
| 2026-04-21 18:39 | 38.69982 | 115.46907 | 32609 ft | 513 kts | 62° |
| 2026-04-21 18:39 | 38.71446 | 115.51064 | 31910 ft | 511 kts | 61° |
| 2026-04-21 18:39 | 38.73077 | 115.55013 | 31293 ft | 503 kts | 54° |
| 2026-04-21 18:40 | 38.74845 | 115.58850 | 30767 ft | 498 kts | 54° |
| 2026-04-21 18:40 | 38.76609 | 115.62640 | 30222 ft | 493 kts | 53° |
| 2026-04-21 18:40 | 38.78364 | 115.66400 | 29705 ft | 487 kts | 53° |
| 2026-04-21 18:40 | 38.80091 | 115.70111 | 29094 ft | 483 kts | 53° |
| 2026-04-21 18:41 | 38.81798 | 115.73796 | 28596 ft | 477 kts | 53° |
| 2026-04-21 18:41 | 38.83475 | 115.77429 | 28098 ft | 471 kts | 54° |
| 2026-04-21 18:41 | 38.85130 | 115.81027 | 27602 ft | 466 kts | 54° |
| 2026-04-21 18:41 | 38.86766 | 115.84590 | 27129 ft | 460 kts | 54° |
| 2026-04-21 18:42 | 38.88375 | 115.88102 | 26646 ft | 455 kts | 54° |
| 2026-04-21 18:42 | 38.89970 | 115.91588 | 26192 ft | 450 kts | 54° |
| 2026-04-21 18:42 | 38.91548 | 115.95034 | 25725 ft | 446 kts | 54° |
| 2026-04-21 18:42 | 38.93113 | 115.98450 | 25247 ft | 442 kts | 54° |
| 2026-04-21 18:43 | 38.94667 | 116.01841 | 24768 ft | 438 kts | 54° |
| 2026-04-21 18:43 | 38.96183 | 116.05153 | 24285 ft | 436 kts | 54° |
| 2026-04-21 18:43 | 38.97604 | 116.08264 | 23851 ft | 433 kts | 54° |
| 2026-04-21 18:43 | 38.99207 | 116.11494 | 23333 ft | 425 kts | 45° |
| 2026-04-21 18:44 | 39.01258 | 116.14052 | 22699 ft | 406 kts | 30° |
| 2026-04-21 18:44 | 39.03633 | 116.15795 | 22087 ft | 383 kts | 16° |
| 2026-04-21 18:44 | 39.06122 | 116.16714 | 21494 ft | 363 kts | 3° |
| 2026-04-21 18:44 | 39.08578 | 116.16882 | 20908 ft | 347 kts | 351° |
| 2026-04-21 18:45 | 39.10952 | 116.16543 | 20338 ft | 342 kts | 349° |
| 2026-04-21 18:45 | 39.13303 | 116.16178 | 19771 ft | 340 kts | 349° |
| 2026-04-21 18:45 | 39.15667 | 116.15813 | 19218 ft | 343 kts | 350° |
| 2026-04-21 18:45 | 39.18047 | 116.15446 | 18673 ft | 346 kts | 351° |
| 2026-04-21 18:46 | 39.20446 | 116.15078 | 18117 ft | 348 kts | 351° |
| 2026-04-21 18:46 | 39.22861 | 116.14711 | 17502 ft | 350 kts | 352° |
| 2026-04-21 18:46 | 39.25290 | 116.14340 | 16891 ft | 352 kts | 352° |
| 2026-04-21 18:46 | 39.27730 | 116.13963 | 16295 ft | 354 kts | 352° |
| 2026-04-21 18:47 | 39.30176 | 116.13587 | 15713 ft | 355 kts | 352° |
| 2026-04-21 18:47 | 39.32632 | 116.13208 | 15138 ft | 356 kts | 352° |
| 2026-04-21 18:47 | 39.35082 | 116.12831 | 14731 ft | 352 kts | 353° |
| 2026-04-21 18:47 | 39.37489 | 116.12462 | 14486 ft | 343 kts | 353° |
| 2026-04-21 18:48 | 39.39830 | 116.12103 | 14245 ft | 335 kts | 353° |
| 2026-04-21 18:48 | 39.42127 | 116.11751 | 14006 ft | 328 kts | 353° |
| 2026-04-21 18:48 | 39.44338 | 116.11411 | 13770 ft | 321 kts | 353° |
| 2026-04-21 18:48 | 39.46530 | 116.11070 | 13501 ft | 314 kts | 353° |
| 2026-04-21 18:49 | 39.48685 | 116.10738 | 13238 ft | 309 kts | 353° |
| 2026-04-21 18:49 | 39.50808 | 116.10413 | 12976 ft | 306 kts | 353° |
| 2026-04-21 18:49 | 39.52212 | 116.10200 | 12786 ft | 305 kts | 353° |
| 2026-04-21 18:49 | 39.55025 | 116.09772 | 12451 ft | 304 kts | 353° |
| 2026-04-21 18:50 | 39.57109 | 116.09456 | 12191 ft | 298 kts | 353° |
| 2026-04-21 18:50 | 39.59149 | 116.09147 | 11936 ft | 293 kts | 353° |
| 2026-04-21 18:50 | 39.61158 | 116.08843 | 11640 ft | 289 kts | 353° |
| 2026-04-21 18:50 | 39.63155 | 116.08537 | 11250 ft | 289 kts | 353° |
| 2026-04-21 18:51 | 39.65153 | 116.08228 | 10855 ft | 289 kts | 353° |
| 2026-04-21 18:51 | 39.67156 | 116.07919 | 10440 ft | 290 kts | 353° |
| 2026-04-21 18:51 | 39.69152 | 116.07613 | 10056 ft | 290 kts | 353° |
| 2026-04-21 18:51 | 39.71140 | 116.07309 | 9715 ft | 287 kts | 354° |
| 2026-04-21 18:52 | 39.73124 | 116.07092 | 9341 ft | 284 kts | 3° |
| 2026-04-21 18:52 | 39.74992 | 116.07859 | 8925 ft | 283 kts | 32° |
| 2026-04-21 18:52 | 39.76338 | 116.09712 | 8452 ft | 285 kts | 62° |
| 2026-04-21 18:52 | 39.76879 | 116.12153 | 7972 ft | 289 kts | 82° |
| 2026-04-21 18:53 | 39.77123 | 116.14740 | 7770 ft | 280 kts | 82° |
| 2026-04-21 18:53 | 39.77339 | 116.17171 | 7636 ft | 269 kts | 82° |
| 2026-04-21 18:53 | 39.77554 | 116.19575 | 7312 ft | 266 kts | 82° |
| 2026-04-21 18:53 | 39.77771 | 116.21955 | 6984 ft | 264 kts | 82° |
| 2026-04-21 18:54 | 39.77984 | 116.24250 | 6841 ft | 249 kts | 82° |
| 2026-04-21 18:54 | 39.78185 | 116.26472 | 6472 ft | 245 kts | 82° |
| 2026-04-21 18:54 | 39.78347 | 116.28681 | 6232 ft | 253 kts | 89° |
| 2026-04-21 18:54 | 39.78035 | 116.31027 | 6230 ft | 267 kts | 110° |
| 2026-04-21 18:55 | 39.77486 | 116.32403 | 6253 ft | 251 kts | 125° |
| 2026-04-21 18:55 | 39.75867 | 116.34377 | 6117 ft | 233 kts | 150° |
| 2026-04-21 18:55 | 39.74377 | 116.35124 | 5733 ft | 228 kts | 170° |
| 2026-04-21 18:55 | 39.72812 | 116.35394 | 5346 ft | 223 kts | 174° |
| 2026-04-21 18:56 | 39.71296 | 116.35630 | 4843 ft | 218 kts | 174° |
| 2026-04-21 18:56 | 39.69798 | 116.35867 | 4307 ft | 215 kts | 174° |
| 2026-04-21 18:56 | 39.68329 | 116.36100 | 3745 ft | 210 kts | 175° |
| 2026-04-21 18:56 | 39.66928 | 116.36323 | 3237 ft | 201 kts | 175° |
| 2026-04-21 18:57 | 39.65593 | 116.36536 | 2886 ft | 185 kts | 176° |
| 2026-04-21 18:57 | 39.64355 | 116.36733 | 2625 ft | 175 kts | 176° |
| 2026-04-21 18:57 | 39.63163 | 116.36921 | 2398 ft | 170 kts | 176° |
| 2026-04-21 18:57 | 39.62009 | 116.37105 | 2183 ft | 161 kts | 177° |
| 2026-04-21 18:58 | 39.60946 | 116.37274 | 1943 ft | 147 kts | 179° |
| 2026-04-21 18:58 | 39.59969 | 116.37430 | 1767 ft | 137 kts | 179° |
| 2026-04-21 18:58 | 39.59042 | 116.37576 | 1589 ft | 132 kts | 180° |
| 2026-04-21 18:58 | 39.58136 | 116.37719 | 1404 ft | 130 kts | 180° |
| 2026-04-21 18:59 | 39.57243 | 116.37859 | 1231 ft | 129 kts | 179° |
| 2026-04-21 18:59 | 39.56358 | 116.37999 | 1058 ft | 128 kts | 179° |
| 2026-04-21 18:59 | 39.55476 | 116.38138 | 878 ft | 128 kts | 176° |
| 2026-04-21 18:59 | 39.54595 | 116.38277 | 695 ft | 127 kts | 175° |
| 2026-04-21 19:00 | 39.53711 | 116.38417 | 529 ft | 128 kts | 174° |
| 2026-04-21 19:00 | 39.52820 | 116.38558 | 361 ft | 130 kts | 174° |
| 2026-04-21 19:00 | 39.51923 | 116.38699 | 181 ft | 130 kts | 174° |
| 2026-04-21 19:00 | 39.51045 | 116.38835 | 95 ft | 116 kts | 174° |
| 2026-04-21 19:01 | 39.50422 | 116.38933 | 87 ft | 71 kts | 173° |
| 2026-04-21 19:01 | 39.50124 | 116.38978 | 88 ft | 26 kts | 169° |
| 2026-04-21 19:01 | 39.50089 | 116.39034 | 86 ft | 4 kts | 86° |
| 2026-04-21 19:01 | 39.50118 | 116.39100 | 86 ft | 6 kts | 53° |
| 2026-04-21 19:02 | 39.50135 | 116.39126 | 87 ft | 5 kts | 45° |
| 2026-04-21 19:02 | 39.50230 | 116.39170 | 87 ft | 18 kts | 4° |
| 2026-04-21 19:02 | 39.50344 | 116.39170 | 89 ft | 17 kts | 355° |
| 2026-04-21 19:02 | 39.50532 | 116.39148 | 89 ft | 31 kts | 353° |
| 2026-04-21 19:03 | 39.50723 | 116.39120 | 93 ft | 25 kts | 10° |
| 2026-04-21 19:03 | 39.50826 | 116.39245 | 94 ft | 20 kts | 70° |
| 2026-04-21 19:03 | 39.50856 | 116.39429 | 90 ft | 22 kts | 82° |
| 2026-04-21 19:03 | 39.50882 | 116.39631 | 91 ft | 22 kts | 79° |
| 2026-04-21 19:04 | 39.50904 | 116.39813 | 92 ft | 21 kts | 83° |
| 2026-04-21 19:04 | 39.50915 | 116.39991 | 86 ft | 18 kts | 90° |
| 2026-04-21 19:04 | 39.50920 | 116.40135 | 87 ft | 13 kts | 86° |
| 2026-04-21 19:04 | 39.50932 | 116.40262 | 87 ft | 16 kts | 78° |
| 2026-04-21 19:05 | 39.50971 | 116.40361 | 88 ft | 9 kts | 34° |
| 2026-04-21 19:05 | 39.51047 | 116.40418 | 88 ft | 13 kts | 28° |
| 2026-04-21 19:05 | 39.51106 | 116.40452 | 89 ft | 0 kts | 20° |